sensor_id;sensor_type;location;lat;lon;timestamp;temperature;humidity
6008;DHT22;3032;49.484;11.112;2022-12-31T00:00:09;12.50;99.90
6008;DHT22;3032;49.484;11.112;2022-12-31T00:02:35;12.60;99.90
6008;DHT22;3032;49.484;11.112;2022-12-31T00:05:00;12.50;99.90
6008;DHT22;3032;49.484;11.112;2022-12-31T00:07:26;12.50;99.90
6008;DHT22;3032;49.484;11.112;2022-12-31T00:09:52;12.40;99.90
6008;DHT22;3032;49.484;11.112;2022-12-31T00:12:17;12.40;99.90
6008;DHT22;3032;49.484;11.112;2022-12-31T00:14:43;12.50;99.90
6008;DHT22;3032;49.484;11.112;2022-12-31T00:17:08;12.50;99.90
6008;DHT22;3032;49.484;11.112;2022-12-31T00:19:34;12.40;99.90
6008;DHT22;3032;49.484;11.112;2022-12-31T00:21:59;12.50;99.90
6008;DHT22;3032;49.484;11.112;2022-12-31T00:24:25;12.60;99.90
6008;DHT22;3032;49.484;11.112;2022-12-31T00:26:55;12.70;99.90
6008;DHT22;3032;49.484;11.112;2022-12-31T00:29:21;12.60;99.90
6008;DHT22;3032;49.484;11.112;2022-12-31T00:31:46;12.80;99.90
6008;DHT22;3032;49.484;11.112;2022-12-31T00:34:12;12.60;99.90
6008;DHT22;3032;49.484;11.112;2022-12-31T00:36:38;12.60;99.90
6008;DHT22;3032;49.484;11.112;2022-12-31T00:39:06;13.00;99.90
6008;DHT22;3032;49.484;11.112;2022-12-31T00:41:32;13.00;99.90
6008;DHT22;3032;49.484;11.112;2022-12-31T00:43:58;13.20;99.90
6008;DHT22;3032;49.484;11.112;2022-12-31T00:46:25;12.90;99.90
6008;DHT22;3032;49.484;11.112;2022-12-31T00:48:50;13.10;99.90
6008;DHT22;3032;49.484;11.112;2022-12-31T00:51:19;13.30;99.90
6008;DHT22;3032;49.484;11.112;2022-12-31T00:53:45;12.90;99.90
6008;DHT22;3032;49.484;11.112;2022-12-31T00:56:16;12.70;99.90
6008;DHT22;3032;49.484;11.112;2022-12-31T00:58:42;12.80;99.90
6008;DHT22;3032;49.484;11.112;2022-12-31T01:01:23;12.90;99.90
6008;DHT22;3032;49.484;11.112;2022-12-31T01:03:51;12.90;99.90
6008;DHT22;3032;49.484;11.112;2022-12-31T01:06:17;13.10;99.90
6008;DHT22;3032;49.484;11.112;2022-12-31T01:08:43;13.00;99.90
6008;DHT22;3032;49.484;11.112;2022-12-31T01:11:10;12.60;99.90
6008;DHT22;3032;49.484;11.112;2022-12-31T01:13:51;12.80;99.90
6008;DHT22;3032;49.484;11.112;2022-12-31T01:16:22;13.10;99.90
6008;DHT22;3032;49.484;11.112;2022-12-31T01:18:49;13.10;99.90
6008;DHT22;3032;49.484;11.112;2022-12-31T01:21:16;13.10;99.90
6008;DHT22;3032;49.484;11.112;2022-12-31T01:23:41;13.20;99.90
6008;DHT22;3032;49.484;11.112;2022-12-31T01:26:10;13.30;99.90
6008;DHT22;3032;49.484;11.112;2022-12-31T01:28:37;13.40;99.90
6008;DHT22;3032;49.484;11.112;2022-12-31T01:31:08;13.20;99.90
6008;DHT22;3032;49.484;11.112;2022-12-31T01:33:34;13.40;99.90
6008;DHT22;3032;49.484;11.112;2022-12-31T01:36:05;13.60;99.90
6008;DHT22;3032;49.484;11.112;2022-12-31T01:38:32;13.40;99.90
6008;DHT22;3032;49.484;11.112;2022-12-31T01:40:58;13.30;99.90
6008;DHT22;3032;49.484;11.112;2022-12-31T01:46:07;13.40;99.90
6008;DHT22;3032;49.484;11.112;2022-12-31T01:48:33;13.30;99.90
6008;DHT22;3032;49.484;11.112;2022-12-31T01:50:59;13.40;99.90
6008;DHT22;3032;49.484;11.112;2022-12-31T01:53:25;13.40;99.90
6008;DHT22;3032;49.484;11.112;2022-12-31T01:55:56;13.40;99.90
6008;DHT22;3032;49.484;11.112;2022-12-31T01:58:45;13.40;99.90
6008;DHT22;3032;49.484;11.112;2022-12-31T02:01:19;13.40;99.90
6008;DHT22;3032;49.484;11.112;2022-12-31T02:03:45;13.50;99.90
6008;DHT22;3032;49.484;11.112;2022-12-31T02:06:17;13.50;99.90
6008;DHT22;3032;49.484;11.112;2022-12-31T02:08:44;13.30;99.90
6008;DHT22;3032;49.484;11.112;2022-12-31T02:13:45;13.60;99.90
6008;DHT22;3032;49.484;11.112;2022-12-31T02:19:01;13.60;99.90
6008;DHT22;3032;49.484;11.112;2022-12-31T02:21:54;13.50;99.90
6008;DHT22;3032;49.484;11.112;2022-12-31T02:30:16;13.50;99.90
6008;DHT22;3032;49.484;11.112;2022-12-31T02:38:09;13.30;99.90
6008;DHT22;3032;49.484;11.112;2022-12-31T02:40:36;14.10;99.90
6008;DHT22;3032;49.484;11.112;2022-12-31T02:43:02;13.30;99.90
6008;DHT22;3032;49.484;11.112;2022-12-31T02:45:40;13.50;99.90
6008;DHT22;3032;49.484;11.112;2022-12-31T02:51:06;13.40;99.90
6008;DHT22;3032;49.484;11.112;2022-12-31T02:56:41;13.50;99.90
6008;DHT22;3032;49.484;11.112;2022-12-31T02:59:41;13.60;99.90
6008;DHT22;3032;49.484;11.112;2022-12-31T03:02:30;13.70;99.90
6008;DHT22;3032;49.484;11.112;2022-12-31T03:04:56;13.70;99.90
6008;DHT22;3032;49.484;11.112;2022-12-31T03:07:29;13.60;99.90
6008;DHT22;3032;49.484;11.112;2022-12-31T03:09:56;13.50;99.90
6008;DHT22;3032;49.484;11.112;2022-12-31T03:12:25;13.40;99.90
6008;DHT22;3032;49.484;11.112;2022-12-31T03:15:10;13.40;99.90
6008;DHT22;3032;49.484;11.112;2022-12-31T03:20:12;13.40;99.90
6008;DHT22;3032;49.484;11.112;2022-12-31T03:22:56;13.50;99.90
6008;DHT22;3032;49.484;11.112;2022-12-31T03:25:22;13.50;99.90
6008;DHT22;3032;49.484;11.112;2022-12-31T03:28:11;13.40;99.90
6008;DHT22;3032;49.484;11.112;2022-12-31T03:30:40;13.20;99.90
6008;DHT22;3032;49.484;11.112;2022-12-31T03:33:07;13.30;99.90
6008;DHT22;3032;49.484;11.112;2022-12-31T03:35:35;13.50;99.90
6008;DHT22;3032;49.484;11.112;2022-12-31T03:38:01;13.40;99.90
6008;DHT22;3032;49.484;11.112;2022-12-31T03:40:28;13.50;99.90
6008;DHT22;3032;49.484;11.112;2022-12-31T03:42:54;13.50;99.90
6008;DHT22;3032;49.484;11.112;2022-12-31T03:45:20;13.50;99.90
6008;DHT22;3032;49.484;11.112;2022-12-31T03:47:46;13.80;99.90
6008;DHT22;3032;49.484;11.112;2022-12-31T03:50:14;13.40;99.90
6008;DHT22;3032;49.484;11.112;2022-12-31T03:52:40;14.00;99.90
6008;DHT22;3032;49.484;11.112;2022-12-31T03:55:06;13.60;99.90
6008;DHT22;3032;49.484;11.112;2022-12-31T03:57:32;13.70;99.90
6008;DHT22;3032;49.484;11.112;2022-12-31T03:59:58;13.60;99.90
6008;DHT22;3032;49.484;11.112;2022-12-31T04:02:24;13.70;99.90
6008;DHT22;3032;49.484;11.112;2022-12-31T04:04:49;14.00;99.90
6008;DHT22;3032;49.484;11.112;2022-12-31T04:07:15;13.80;99.90
6008;DHT22;3032;49.484;11.112;2022-12-31T04:09:41;13.90;99.90
6008;DHT22;3032;49.484;11.112;2022-12-31T04:12:06;13.80;99.90
6008;DHT22;3032;49.484;11.112;2022-12-31T04:14:32;13.80;99.90
6008;DHT22;3032;49.484;11.112;2022-12-31T04:16:57;13.80;99.90
6008;DHT22;3032;49.484;11.112;2022-12-31T04:19:23;13.70;99.90
6008;DHT22;3032;49.484;11.112;2022-12-31T04:21:49;13.70;99.90
6008;DHT22;3032;49.484;11.112;2022-12-31T04:24:14;13.60;99.90
6008;DHT22;3032;49.484;11.112;2022-12-31T04:26:40;13.40;99.90
6008;DHT22;3032;49.484;11.112;2022-12-31T04:29:06;13.40;99.90
6008;DHT22;3032;49.484;11.112;2022-12-31T04:31:32;13.40;99.90
6008;DHT22;3032;49.484;11.112;2022-12-31T04:33:57;13.70;99.90
6008;DHT22;3032;49.484;11.112;2022-12-31T04:36:23;13.60;99.90
6008;DHT22;3032;49.484;11.112;2022-12-31T04:38:48;13.80;99.90
6008;DHT22;3032;49.484;11.112;2022-12-31T04:41:14;13.80;99.90
6008;DHT22;3032;49.484;11.112;2022-12-31T04:43:50;14.00;99.90
6008;DHT22;3032;49.484;11.112;2022-12-31T04:46:20;13.80;99.90
6008;DHT22;3032;49.484;11.112;2022-12-31T04:48:46;13.90;99.90
6008;DHT22;3032;49.484;11.112;2022-12-31T04:51:11;14.00;99.90
6008;DHT22;3032;49.484;11.112;2022-12-31T04:53:37;13.80;99.90
6008;DHT22;3032;49.484;11.112;2022-12-31T04:56:03;14.20;99.90
6008;DHT22;3032;49.484;11.112;2022-12-31T04:58:29;14.40;99.90
6008;DHT22;3032;49.484;11.112;2022-12-31T05:00:55;14.60;99.90
6008;DHT22;3032;49.484;11.112;2022-12-31T05:03:22;14.50;99.90
6008;DHT22;3032;49.484;11.112;2022-12-31T05:05:48;14.60;99.90
6008;DHT22;3032;49.484;11.112;2022-12-31T05:08:15;14.70;99.90
6008;DHT22;3032;49.484;11.112;2022-12-31T05:10:43;14.50;99.90
6008;DHT22;3032;49.484;11.112;2022-12-31T05:13:09;14.30;99.90
6008;DHT22;3032;49.484;11.112;2022-12-31T05:15:34;13.70;99.90
6008;DHT22;3032;49.484;11.112;2022-12-31T05:18:00;13.60;99.90
6008;DHT22;3032;49.484;11.112;2022-12-31T05:20:26;13.10;99.90
6008;DHT22;3032;49.484;11.112;2022-12-31T05:22:51;12.90;99.90
6008;DHT22;3032;49.484;11.112;2022-12-31T05:25:17;13.00;99.90
6008;DHT22;3032;49.484;11.112;2022-12-31T05:27:43;13.20;99.90
6008;DHT22;3032;49.484;11.112;2022-12-31T05:30:09;13.30;99.90
6008;DHT22;3032;49.484;11.112;2022-12-31T05:32:34;13.60;99.90
6008;DHT22;3032;49.484;11.112;2022-12-31T05:35:00;13.90;99.90
6008;DHT22;3032;49.484;11.112;2022-12-31T05:37:29;13.90;99.90
6008;DHT22;3032;49.484;11.112;2022-12-31T05:39:55;13.50;99.90
6008;DHT22;3032;49.484;11.112;2022-12-31T05:42:21;13.70;99.90
6008;DHT22;3032;49.484;11.112;2022-12-31T05:44:47;13.60;99.90
6008;DHT22;3032;49.484;11.112;2022-12-31T05:47:13;13.40;99.90
6008;DHT22;3032;49.484;11.112;2022-12-31T05:49:38;13.30;99.90
6008;DHT22;3032;49.484;11.112;2022-12-31T05:52:04;13.30;99.90
6008;DHT22;3032;49.484;11.112;2022-12-31T05:54:30;13.40;99.90
6008;DHT22;3032;49.484;11.112;2022-12-31T05:56:55;13.70;99.90
6008;DHT22;3032;49.484;11.112;2022-12-31T05:59:21;13.90;99.90
6008;DHT22;3032;49.484;11.112;2022-12-31T06:01:46;13.90;99.90
6008;DHT22;3032;49.484;11.112;2022-12-31T06:04:12;13.70;99.90
6008;DHT22;3032;49.484;11.112;2022-12-31T06:06:37;13.50;99.90
6008;DHT22;3032;49.484;11.112;2022-12-31T06:09:03;13.40;99.90
6008;DHT22;3032;49.484;11.112;2022-12-31T06:11:29;13.40;99.90
6008;DHT22;3032;49.484;11.112;2022-12-31T06:13:54;13.50;99.90
6008;DHT22;3032;49.484;11.112;2022-12-31T06:16:20;13.60;99.90
6008;DHT22;3032;49.484;11.112;2022-12-31T06:18:46;13.70;99.90
6008;DHT22;3032;49.484;11.112;2022-12-31T06:21:14;13.90;99.90
6008;DHT22;3032;49.484;11.112;2022-12-31T06:23:40;14.00;99.90
6008;DHT22;3032;49.484;11.112;2022-12-31T06:26:05;13.90;99.90
6008;DHT22;3032;49.484;11.112;2022-12-31T06:28:32;14.00;99.90
6008;DHT22;3032;49.484;11.112;2022-12-31T06:30:59;14.00;99.90
6008;DHT22;3032;49.484;11.112;2022-12-31T06:33:24;13.50;99.90
6008;DHT22;3032;49.484;11.112;2022-12-31T06:35:58;13.40;99.90
6008;DHT22;3032;49.484;11.112;2022-12-31T06:38:24;13.50;99.90
6008;DHT22;3032;49.484;11.112;2022-12-31T06:40:50;13.50;99.90
6008;DHT22;3032;49.484;11.112;2022-12-31T06:43:15;13.50;99.90
6008;DHT22;3032;49.484;11.112;2022-12-31T06:45:41;13.60;99.90
6008;DHT22;3032;49.484;11.112;2022-12-31T06:48:07;13.50;99.90
6008;DHT22;3032;49.484;11.112;2022-12-31T06:50:32;13.30;99.90
6008;DHT22;3032;49.484;11.112;2022-12-31T06:52:58;13.70;99.90
6008;DHT22;3032;49.484;11.112;2022-12-31T06:55:24;13.80;99.90
6008;DHT22;3032;49.484;11.112;2022-12-31T06:57:49;14.00;99.90
6008;DHT22;3032;49.484;11.112;2022-12-31T07:00:16;14.10;99.90
6008;DHT22;3032;49.484;11.112;2022-12-31T07:05:44;13.80;99.90
6008;DHT22;3032;49.484;11.112;2022-12-31T07:10:46;14.10;99.90
6008;DHT22;3032;49.484;11.112;2022-12-31T07:16:18;13.80;99.90
6008;DHT22;3032;49.484;11.112;2022-12-31T07:19:02;13.70;99.90
6008;DHT22;3032;49.484;11.112;2022-12-31T07:21:38;13.90;99.90
6008;DHT22;3032;49.484;11.112;2022-12-31T07:24:07;14.00;99.90
6008;DHT22;3032;49.484;11.112;2022-12-31T07:32:07;13.40;99.90
6008;DHT22;3032;49.484;11.112;2022-12-31T07:40:58;13.60;99.90
6008;DHT22;3032;49.484;11.112;2022-12-31T07:46:21;13.80;99.90
6008;DHT22;3032;49.484;11.112;2022-12-31T07:48:49;14.00;99.90
6008;DHT22;3032;49.484;11.112;2022-12-31T07:51:15;14.00;99.90
6008;DHT22;3032;49.484;11.112;2022-12-31T07:53:41;13.70;99.90
6008;DHT22;3032;49.484;11.112;2022-12-31T07:56:08;13.50;99.90
6008;DHT22;3032;49.484;11.112;2022-12-31T08:01:10;14.00;99.90
6008;DHT22;3032;49.484;11.112;2022-12-31T08:09:12;14.70;99.90
6008;DHT22;3032;49.484;11.112;2022-12-31T08:11:56;14.60;99.90
6008;DHT22;3032;49.484;11.112;2022-12-31T08:14:22;14.90;99.90
6008;DHT22;3032;49.484;11.112;2022-12-31T08:16:48;15.10;99.90
6008;DHT22;3032;49.484;11.112;2022-12-31T08:19:23;15.50;99.90
6008;DHT22;3032;49.484;11.112;2022-12-31T08:27:21;18.30;99.90
6008;DHT22;3032;49.484;11.112;2022-12-31T08:30:07;19.40;99.90
6008;DHT22;3032;49.484;11.112;2022-12-31T08:33:07;20.90;99.90
6008;DHT22;3032;49.484;11.112;2022-12-31T08:43:47;22.30;99.90
6008;DHT22;3032;49.484;11.112;2022-12-31T08:46:24;22.40;99.90
6008;DHT22;3032;49.484;11.112;2022-12-31T08:48:50;22.20;99.90
6008;DHT22;3032;49.484;11.112;2022-12-31T08:51:24;22.20;99.90
6008;DHT22;3032;49.484;11.112;2022-12-31T08:53:50;22.30;99.90
6008;DHT22;3032;49.484;11.112;2022-12-31T08:56:50;22.20;99.90
6008;DHT22;3032;49.484;11.112;2022-12-31T09:07:13;19.60;99.90
6008;DHT22;3032;49.484;11.112;2022-12-31T09:15:16;17.80;99.90
6008;DHT22;3032;49.484;11.112;2022-12-31T09:17:49;17.70;99.90
6008;DHT22;3032;49.484;11.112;2022-12-31T09:20:32;17.80;99.90
6008;DHT22;3032;49.484;11.112;2022-12-31T09:22:59;17.70;99.90
6008;DHT22;3032;49.484;11.112;2022-12-31T09:25:26;17.80;99.90
6008;DHT22;3032;49.484;11.112;2022-12-31T09:27:56;17.90;99.90
6008;DHT22;3032;49.484;11.112;2022-12-31T09:30:27;18.00;99.90
6008;DHT22;3032;49.484;11.112;2022-12-31T09:35:51;18.30;99.90
6008;DHT22;3032;49.484;11.112;2022-12-31T09:38:25;18.30;99.90
6008;DHT22;3032;49.484;11.112;2022-12-31T09:57:54;17.90;99.90
6008;DHT22;3032;49.484;11.112;2022-12-31T10:00:41;18.30;99.90
6008;DHT22;3032;49.484;11.112;2022-12-31T10:03:41;18.70;99.90
6008;DHT22;3032;49.484;11.112;2022-12-31T10:09:13;18.50;99.90
6008;DHT22;3032;49.484;11.112;2022-12-31T10:28:58;18.80;99.90
6008;DHT22;3032;49.484;11.112;2022-12-31T10:31:38;18.70;99.90
6008;DHT22;3032;49.484;11.112;2022-12-31T10:34:25;18.80;99.90
6008;DHT22;3032;49.484;11.112;2022-12-31T10:37:16;18.80;99.90
6008;DHT22;3032;49.484;11.112;2022-12-31T10:40:03;18.50;99.90
6008;DHT22;3032;49.484;11.112;2022-12-31T10:45:22;19.10;99.90
6008;DHT22;3032;49.484;11.112;2022-12-31T10:56:06;19.20;99.90
6008;DHT22;3032;49.484;11.112;2022-12-31T11:01:47;19.60;99.90
6008;DHT22;3032;49.484;11.112;2022-12-31T11:07:55;19.90;99.90
6008;DHT22;3032;49.484;11.112;2022-12-31T11:19:09;19.50;99.90
6008;DHT22;3032;49.484;11.112;2022-12-31T11:24:35;18.90;99.90
6008;DHT22;3032;49.484;11.112;2022-12-31T11:30:27;19.30;99.90
6008;DHT22;3032;49.484;11.112;2022-12-31T11:38:32;19.00;99.90
6008;DHT22;3032;49.484;11.112;2022-12-31T11:41:29;18.90;99.90
6008;DHT22;3032;49.484;11.112;2022-12-31T11:46:39;18.70;99.90
6008;DHT22;3032;49.484;11.112;2022-12-31T11:52:06;19.20;99.90
6008;DHT22;3032;49.484;11.112;2022-12-31T11:59:42;20.20;99.90
6008;DHT22;3032;49.484;11.112;2022-12-31T12:02:27;21.00;99.90
6008;DHT22;3032;49.484;11.112;2022-12-31T12:04:55;20.70;99.90
6008;DHT22;3032;49.484;11.112;2022-12-31T12:07:22;20.70;99.90
6008;DHT22;3032;49.484;11.112;2022-12-31T12:09:49;21.00;99.90
6008;DHT22;3032;49.484;11.112;2022-12-31T12:12:16;21.00;99.90
6008;DHT22;3032;49.484;11.112;2022-12-31T12:14:47;21.60;99.90
6008;DHT22;3032;49.484;11.112;2022-12-31T12:17:24;21.30;99.90
6008;DHT22;3032;49.484;11.112;2022-12-31T12:19:56;21.70;99.90
6008;DHT22;3032;49.484;11.112;2022-12-31T12:22:25;21.30;99.90
6008;DHT22;3032;49.484;11.112;2022-12-31T12:25:05;21.20;99.90
6008;DHT22;3032;49.484;11.112;2022-12-31T12:27:33;21.10;99.90
6008;DHT22;3032;49.484;11.112;2022-12-31T12:33:15;20.50;99.90
6008;DHT22;3032;49.484;11.112;2022-12-31T12:35:40;20.40;99.90
6008;DHT22;3032;49.484;11.112;2022-12-31T12:38:14;21.30;99.90
6008;DHT22;3032;49.484;11.112;2022-12-31T12:40:40;21.30;99.90
6008;DHT22;3032;49.484;11.112;2022-12-31T12:43:23;21.20;99.90
6008;DHT22;3032;49.484;11.112;2022-12-31T12:45:49;20.50;99.90
6008;DHT22;3032;49.484;11.112;2022-12-31T12:48:19;20.30;99.90
6008;DHT22;3032;49.484;11.112;2022-12-31T12:50:47;20.00;99.90
6008;DHT22;3032;49.484;11.112;2022-12-31T12:59:42;20.50;99.90
6008;DHT22;3032;49.484;11.112;2022-12-31T13:05:13;20.30;99.90
6008;DHT22;3032;49.484;11.112;2022-12-31T13:08:03;20.40;99.90
6008;DHT22;3032;49.484;11.112;2022-12-31T13:21:30;20.30;99.90
6008;DHT22;3032;49.484;11.112;2022-12-31T13:26:35;20.30;99.90
6008;DHT22;3032;49.484;11.112;2022-12-31T13:29:04;20.10;99.90
6008;DHT22;3032;49.484;11.112;2022-12-31T13:31:35;20.10;99.90
6008;DHT22;3032;49.484;11.112;2022-12-31T13:34:23;19.50;99.90
6008;DHT22;3032;49.484;11.112;2022-12-31T13:36:52;19.70;99.90
6008;DHT22;3032;49.484;11.112;2022-12-31T13:39:23;19.40;99.90
6008;DHT22;3032;49.484;11.112;2022-12-31T13:42:21;19.80;99.90
6008;DHT22;3032;49.484;11.112;2022-12-31T13:45:04;20.20;99.90
6008;DHT22;3032;49.484;11.112;2022-12-31T13:47:34;19.30;99.90
6008;DHT22;3032;49.484;11.112;2022-12-31T13:50:18;19.40;99.90
6008;DHT22;3032;49.484;11.112;2022-12-31T13:53:15;18.80;99.90
6008;DHT22;3032;49.484;11.112;2022-12-31T13:55:51;19.40;99.90
6008;DHT22;3032;49.484;11.112;2022-12-31T13:58:49;19.90;99.90
6008;DHT22;3032;49.484;11.112;2022-12-31T14:01:23;19.60;99.90
6008;DHT22;3032;49.484;11.112;2022-12-31T14:04:00;19.30;99.90
6008;DHT22;3032;49.484;11.112;2022-12-31T14:09:28;19.20;99.90
6008;DHT22;3032;49.484;11.112;2022-12-31T14:26:24;19.00;99.90
6008;DHT22;3032;49.484;11.112;2022-12-31T14:34:24;18.60;99.90
6008;DHT22;3032;49.484;11.112;2022-12-31T14:50:55;16.90;99.90
6008;DHT22;3032;49.484;11.112;2022-12-31T14:53:24;16.80;99.90
6008;DHT22;3032;49.484;11.112;2022-12-31T14:56:02;16.80;99.90
6008;DHT22;3032;49.484;11.112;2022-12-31T14:58:35;16.60;99.90
6008;DHT22;3032;49.484;11.112;2022-12-31T15:03:43;16.60;99.90
6008;DHT22;3032;49.484;11.112;2022-12-31T15:06:43;17.10;99.90
6008;DHT22;3032;49.484;11.112;2022-12-31T15:09:19;16.60;99.90
6008;DHT22;3032;49.484;11.112;2022-12-31T15:25:47;16.40;99.90
6008;DHT22;3032;49.484;11.112;2022-12-31T15:31:14;16.80;99.90
6008;DHT22;3032;49.484;11.112;2022-12-31T15:36:22;16.70;99.90
6008;DHT22;3032;49.484;11.112;2022-12-31T15:38:49;17.10;99.90
6008;DHT22;3032;49.484;11.112;2022-12-31T15:44:05;17.00;99.90
6008;DHT22;3032;49.484;11.112;2022-12-31T15:46:37;17.20;99.90
6008;DHT22;3032;49.484;11.112;2022-12-31T15:49:09;17.50;99.90
6008;DHT22;3032;49.484;11.112;2022-12-31T15:51:47;16.20;99.90
6008;DHT22;3032;49.484;11.112;2022-12-31T15:56:53;15.70;99.90
6008;DHT22;3032;49.484;11.112;2022-12-31T15:59:20;15.80;99.90
6008;DHT22;3032;49.484;11.112;2022-12-31T16:01:47;15.70;99.90
6008;DHT22;3032;49.484;11.112;2022-12-31T16:04:25;15.80;99.90
6008;DHT22;3032;49.484;11.112;2022-12-31T16:06:52;15.60;99.90
6008;DHT22;3032;49.484;11.112;2022-12-31T16:09:31;15.60;99.90
6008;DHT22;3032;49.484;11.112;2022-12-31T16:12:03;15.60;99.90
6008;DHT22;3032;49.484;11.112;2022-12-31T16:14:38;15.50;99.90
6008;DHT22;3032;49.484;11.112;2022-12-31T16:17:05;15.50;99.90
6008;DHT22;3032;49.484;11.112;2022-12-31T16:19:43;15.50;99.90
6008;DHT22;3032;49.484;11.112;2022-12-31T16:22:25;16.00;99.90
6008;DHT22;3032;49.484;11.112;2022-12-31T16:24:58;15.40;99.90
6008;DHT22;3032;49.484;11.112;2022-12-31T16:27:25;15.20;99.90
6008;DHT22;3032;49.484;11.112;2022-12-31T16:30:00;15.20;99.90
6008;DHT22;3032;49.484;11.112;2022-12-31T16:32:34;15.20;99.90
6008;DHT22;3032;49.484;11.112;2022-12-31T16:35:00;15.20;99.90
6008;DHT22;3032;49.484;11.112;2022-12-31T16:37:25;15.10;99.90
6008;DHT22;3032;49.484;11.112;2022-12-31T16:42:27;15.00;99.90
6008;DHT22;3032;49.484;11.112;2022-12-31T16:44:55;14.90;99.90
6008;DHT22;3032;49.484;11.112;2022-12-31T16:47:32;14.90;99.90
6008;DHT22;3032;49.484;11.112;2022-12-31T16:50:04;14.90;99.90
6008;DHT22;3032;49.484;11.112;2022-12-31T16:52:43;15.10;99.90
6008;DHT22;3032;49.484;11.112;2022-12-31T16:55:14;15.10;99.90
6008;DHT22;3032;49.484;11.112;2022-12-31T16:57:42;15.30;99.90
6008;DHT22;3032;49.484;11.112;2022-12-31T17:00:14;16.00;99.90
6008;DHT22;3032;49.484;11.112;2022-12-31T17:02:41;15.10;99.90
6008;DHT22;3032;49.484;11.112;2022-12-31T17:05:20;15.10;99.90
6008;DHT22;3032;49.484;11.112;2022-12-31T17:07:46;14.70;99.90
6008;DHT22;3032;49.484;11.112;2022-12-31T17:10:24;14.70;99.90
6008;DHT22;3032;49.484;11.112;2022-12-31T17:12:58;14.60;99.90
6008;DHT22;3032;49.484;11.112;2022-12-31T17:15:27;14.60;99.90
6008;DHT22;3032;49.484;11.112;2022-12-31T17:17:56;14.40;99.90
6008;DHT22;3032;49.484;11.112;2022-12-31T17:20:30;14.50;99.90
6008;DHT22;3032;49.484;11.112;2022-12-31T17:23:05;14.60;99.90
6008;DHT22;3032;49.484;11.112;2022-12-31T17:25:33;14.60;99.90
6008;DHT22;3032;49.484;11.112;2022-12-31T17:28:20;14.60;99.90
6008;DHT22;3032;49.484;11.112;2022-12-31T17:30:46;14.60;99.90
6008;DHT22;3032;49.484;11.112;2022-12-31T17:35:48;15.00;99.90
6008;DHT22;3032;49.484;11.112;2022-12-31T17:41:14;15.20;99.90
6008;DHT22;3032;49.484;11.112;2022-12-31T17:43:40;15.30;99.90
6008;DHT22;3032;49.484;11.112;2022-12-31T17:46:14;15.20;99.90
6008;DHT22;3032;49.484;11.112;2022-12-31T17:48:41;14.90;99.90
6008;DHT22;3032;49.484;11.112;2022-12-31T17:51:07;14.80;99.90
6008;DHT22;3032;49.484;11.112;2022-12-31T17:53:33;14.80;99.90
6008;DHT22;3032;49.484;11.112;2022-12-31T17:56:03;14.80;99.90
6008;DHT22;3032;49.484;11.112;2022-12-31T17:58:50;14.90;99.90
6008;DHT22;3032;49.484;11.112;2022-12-31T18:01:18;14.80;99.90
6008;DHT22;3032;49.484;11.112;2022-12-31T18:03:44;14.60;99.90
6008;DHT22;3032;49.484;11.112;2022-12-31T18:06:11;14.60;99.90
6008;DHT22;3032;49.484;11.112;2022-12-31T18:08:36;15.00;99.90
6008;DHT22;3032;49.484;11.112;2022-12-31T18:11:02;14.50;99.90
6008;DHT22;3032;49.484;11.112;2022-12-31T18:13:28;14.60;99.90
6008;DHT22;3032;49.484;11.112;2022-12-31T18:15:54;14.70;99.90
6008;DHT22;3032;49.484;11.112;2022-12-31T18:18:25;14.50;99.90
6008;DHT22;3032;49.484;11.112;2022-12-31T18:20:53;14.80;99.90
6008;DHT22;3032;49.484;11.112;2022-12-31T18:23:22;14.80;99.90
6008;DHT22;3032;49.484;11.112;2022-12-31T18:25:48;14.50;99.90
6008;DHT22;3032;49.484;11.112;2022-12-31T18:28:14;14.30;99.90
6008;DHT22;3032;49.484;11.112;2022-12-31T18:30:40;14.40;99.90
6008;DHT22;3032;49.484;11.112;2022-12-31T18:33:08;14.20;99.90
6008;DHT22;3032;49.484;11.112;2022-12-31T18:35:34;14.20;99.90
6008;DHT22;3032;49.484;11.112;2022-12-31T18:38:00;14.30;99.90
6008;DHT22;3032;49.484;11.112;2022-12-31T18:40:25;14.10;99.90
6008;DHT22;3032;49.484;11.112;2022-12-31T18:42:51;14.80;99.90
6008;DHT22;3032;49.484;11.112;2022-12-31T18:45:18;14.20;99.90
6008;DHT22;3032;49.484;11.112;2022-12-31T18:47:44;14.50;99.90
6008;DHT22;3032;49.484;11.112;2022-12-31T18:50:16;14.50;99.90
6008;DHT22;3032;49.484;11.112;2022-12-31T18:52:42;14.20;99.90
6008;DHT22;3032;49.484;11.112;2022-12-31T18:55:26;14.50;99.90
6008;DHT22;3032;49.484;11.112;2022-12-31T18:57:56;14.50;99.90
6008;DHT22;3032;49.484;11.112;2022-12-31T19:00:22;14.40;99.90
6008;DHT22;3032;49.484;11.112;2022-12-31T19:02:47;14.10;99.90
6008;DHT22;3032;49.484;11.112;2022-12-31T19:05:26;14.20;99.90
6008;DHT22;3032;49.484;11.112;2022-12-31T19:07:52;14.10;99.90
6008;DHT22;3032;49.484;11.112;2022-12-31T19:10:18;13.90;99.90
6008;DHT22;3032;49.484;11.112;2022-12-31T19:12:44;14.00;99.90
6008;DHT22;3032;49.484;11.112;2022-12-31T19:15:38;14.40;99.90
6008;DHT22;3032;49.484;11.112;2022-12-31T19:18:05;14.20;99.90
6008;DHT22;3032;49.484;11.112;2022-12-31T19:20:31;14.40;99.90
6008;DHT22;3032;49.484;11.112;2022-12-31T19:22:57;14.70;99.90
6008;DHT22;3032;49.484;11.112;2022-12-31T19:25:30;14.60;99.90
6008;DHT22;3032;49.484;11.112;2022-12-31T19:27:58;14.60;99.90
6008;DHT22;3032;49.484;11.112;2022-12-31T19:30:29;14.60;99.90
6008;DHT22;3032;49.484;11.112;2022-12-31T19:32:55;15.20;99.90
6008;DHT22;3032;49.484;11.112;2022-12-31T19:35:22;14.60;99.90
6008;DHT22;3032;49.484;11.112;2022-12-31T19:37:49;14.50;99.90
6008;DHT22;3032;49.484;11.112;2022-12-31T19:42:42;14.30;99.90
6008;DHT22;3032;49.484;11.112;2022-12-31T19:45:15;14.40;99.90
6008;DHT22;3032;49.484;11.112;2022-12-31T19:47:41;14.60;99.90
6008;DHT22;3032;49.484;11.112;2022-12-31T19:50:11;14.80;99.90
6008;DHT22;3032;49.484;11.112;2022-12-31T19:52:37;14.90;99.90
6008;DHT22;3032;49.484;11.112;2022-12-31T19:55:03;14.60;99.90
6008;DHT22;3032;49.484;11.112;2022-12-31T19:57:28;14.30;99.90
6008;DHT22;3032;49.484;11.112;2022-12-31T19:59:54;14.80;99.90
6008;DHT22;3032;49.484;11.112;2022-12-31T20:02:19;14.80;99.90
6008;DHT22;3032;49.484;11.112;2022-12-31T20:04:45;14.20;99.90
6008;DHT22;3032;49.484;11.112;2022-12-31T20:07:10;14.10;99.90
6008;DHT22;3032;49.484;11.112;2022-12-31T20:09:36;14.80;99.90
6008;DHT22;3032;49.484;11.112;2022-12-31T20:12:02;14.10;99.90
6008;DHT22;3032;49.484;11.112;2022-12-31T20:14:27;14.10;99.90
6008;DHT22;3032;49.484;11.112;2022-12-31T20:16:53;14.00;99.90
6008;DHT22;3032;49.484;11.112;2022-12-31T20:19:20;14.40;99.90
6008;DHT22;3032;49.484;11.112;2022-12-31T20:21:45;14.30;99.90
6008;DHT22;3032;49.484;11.112;2022-12-31T20:24:11;14.40;99.90
6008;DHT22;3032;49.484;11.112;2022-12-31T20:26:37;14.40;99.90
6008;DHT22;3032;49.484;11.112;2022-12-31T20:29:02;14.30;99.90
6008;DHT22;3032;49.484;11.112;2022-12-31T20:31:28;14.40;99.90
6008;DHT22;3032;49.484;11.112;2022-12-31T20:33:54;14.60;99.90
6008;DHT22;3032;49.484;11.112;2022-12-31T20:36:20;14.70;99.90
6008;DHT22;3032;49.484;11.112;2022-12-31T20:38:46;14.60;99.90